Time,TemperatureF,DewpointF,PressureIn,WindDirection,WindDirectionDegrees,WindSpeedMPH,WindSpeedGustMPH,Humidity,HourlyPrecipIn,Conditions,Clouds,dailyrainin,SolarRadiationWatts/m^2,SoftwareType,DateUTC
2013-11-24 00:05:00,64.9,59.3,25.91,East,97,0.0,0.0,82,0.00,,,0.00,0,Wunderground v.1.15,2013-11-24 06:05:00,
2013-11-24 00:11:00,64.7,58.7,25.91,East,97,0.0,0.0,81,0.00,,,0.00,0,Wunderground v.1.15,2013-11-24 06:11:00,
2013-11-24 00:16:00,64.6,58.3,25.91,East,84,0.0,0.0,80,0.00,,,0.00,0,Wunderground v.1.15,2013-11-24 06:16:00,
2013-11-24 00:25:00,64.2,58.2,25.91,SSE,165,1.0,1.0,81,0.00,,,0.00,0,Wunderground v.1.15,2013-11-24 06:25:00,
2013-11-24 00:31:00,64.2,58.2,25.91,SSE,165,1.0,1.0,81,0.00,,,0.00,0,Wunderground v.1.15,2013-11-24 06:31:00,
2013-11-24 00:41:00,63.9,58.3,25.91,SSE,165,0.0,0.0,82,0.00,,,0.00,0,Wunderground v.1.15,2013-11-24 06:41:00,
2013-11-24 00:46:00,63.8,58.5,25.91,SSE,165,0.0,0.0,83,0.00,,,0.00,0,Wunderground v.1.15,2013-11-24 06:46:00,
2013-11-24 00:51:00,63.6,58.3,25.91,SSE,165,0.0,0.0,83,0.00,,,0.00,0,Wunderground v.1.15,2013-11-24 06:51:00,
2013-11-24 01:01:00,63.4,58.5,25.90,SSE,165,0.0,0.0,84,0.00,,,0.00,0,Wunderground v.1.15,2013-11-24 07:01:00,
2013-11-24 01:11:00,63.4,58.5,25.90,SSE,165,0.0,1.0,84,0.00,,,0.00,0,Wunderground v.1.15,2013-11-24 07:11:00,
2013-11-24 01:20:00,63.6,58.7,25.90,SSE,165,0.0,1.0,84,0.00,,,0.00,0,Wunderground v.1.15,2013-11-24 07:20:00,
2013-11-24 01:25:00,63.9,59.0,25.90,SSE,165,0.0,0.0,84,0.00,,,0.00,0,Wunderground v.1.15,2013-11-24 07:25:00,
2013-11-24 01:31:00,64.1,59.2,25.90,SSE,165,0.0,0.0,84,0.00,,,0.00,0,Wunderground v.1.15,2013-11-24 07:31:00,
2013-11-24 01:41:00,64.2,59.3,25.89,SSE,148,1.0,1.0,84,0.00,,,0.00,0,Wunderground v.1.15,2013-11-24 07:41:00,
2013-11-24 01:50:00,64.2,59.3,25.89,SSE,148,0.0,1.0,84,0.00,,,0.00,0,Wunderground v.1.15,2013-11-24 07:50:00,
2013-11-24 01:55:00,64.1,59.2,25.89,SSE,148,0.0,0.0,84,0.00,,,0.00,0,Wunderground v.1.15,2013-11-24 07:55:00,
2013-11-24 02:01:00,63.9,59.0,25.89,SE,145,0.0,0.0,84,0.00,,,0.00,0,Wunderground v.1.15,2013-11-24 08:01:00,
2013-11-24 02:11:00,63.8,59.2,25.89,SE,145,0.0,0.0,85,0.00,,,0.00,0,Wunderground v.1.15,2013-11-24 08:11:00,
2013-11-24 02:20:00,63.9,59.3,25.89,South,169,0.0,6.0,85,0.00,,,0.00,0,Wunderground v.1.15,2013-11-24 08:20:00,
2013-11-24 02:25:00,64.1,59.2,25.89,SSE,167,1.0,6.0,84,0.00,,,0.00,0,Wunderground v.1.15,2013-11-24 08:25:00,
2013-11-24 02:31:00,64.4,59.1,25.89,ESE,122,2.0,2.0,83,0.00,,,0.00,0,Wunderground v.1.15,2013-11-24 08:31:00,
2013-11-24 02:41:00,64.6,59.0,25.89,SSE,159,1.0,1.0,82,0.00,,,0.00,0,Wunderground v.1.15,2013-11-24 08:41:00,
2013-11-24 02:50:00,64.1,58.5,25.89,ESE,118,0.0,1.0,82,0.00,,,0.00,0,Wunderground v.1.15,2013-11-24 08:50:00,
2013-11-24 02:55:00,63.8,58.5,25.89,ESE,120,0.0,0.0,83,0.00,,,0.00,0,Wunderground v.1.15,2013-11-24 08:55:00,
2013-11-24 03:01:00,63.6,58.0,25.89,ESE,119,0.0,0.0,82,0.00,,,0.00,0,Wunderground v.1.15,2013-11-24 09:01:00,
2013-11-24 03:06:00,63.4,58.1,25.88,ESE,119,0.0,0.0,83,0.00,,,0.00,0,Wunderground v.1.15,2013-11-24 09:06:00,
2013-11-24 03:11:00,63.3,58.0,25.88,ESE,119,0.0,0.0,83,0.00,,,0.00,0,Wunderground v.1.15,2013-11-24 09:11:00,
2013-11-24 03:21:00,63.0,57.8,25.89,ESE,119,0.0,0.0,83,0.00,,,0.00,0,Wunderground v.1.15,2013-11-24 09:21:00,
2013-11-24 03:26:00,62.8,57.9,25.89,ESE,119,0.0,0.0,84,0.00,,,0.00,0,Wunderground v.1.15,2013-11-24 09:26:00,
2013-11-24 03:35:00,62.6,57.7,25.89,East,87,0.0,1.0,84,0.00,,,0.00,0,Wunderground v.1.15,2013-11-24 09:35:00,
2013-11-24 03:41:00,62.6,58.0,25.89,East,87,1.0,1.0,85,0.00,,,0.00,0,Wunderground v.1.15,2013-11-24 09:41:00,
2013-11-24 03:46:00,62.6,57.7,25.90,East,80,0.0,1.0,84,0.00,,,0.00,0,Wunderground v.1.15,2013-11-24 09:46:00,
2013-11-24 03:51:00,62.6,57.4,25.90,SE,143,0.0,0.0,83,0.00,,,0.00,0,Wunderground v.1.15,2013-11-24 09:51:00,
2013-11-24 03:56:00,62.8,57.6,25.90,SE,143,0.0,0.0,83,0.00,,,0.00,0,Wunderground v.1.15,2013-11-24 09:56:00,
2013-11-24 04:05:00,62.8,57.2,25.90,East,85,0.0,2.0,82,0.00,,,0.00,0,Wunderground v.1.15,2013-11-24 10:05:00,
2013-11-24 04:11:00,63.0,57.8,25.91,SE,146,0.0,0.0,83,0.00,,,0.00,0,Wunderground v.1.15,2013-11-24 10:11:00,
2013-11-24 04:16:00,63.1,57.9,25.91,SSE,151,1.0,1.0,83,0.00,,,0.00,0,Wunderground v.1.15,2013-11-24 10:16:00,
2013-11-24 04:21:00,63.1,58.2,25.91,SSE,151,0.0,0.0,84,0.00,,,0.00,0,Wunderground v.1.15,2013-11-24 10:21:00,
2013-11-24 04:30:00,63.1,58.5,25.90,SSE,152,0.0,1.0,85,0.00,,,0.00,0,Wunderground v.1.15,2013-11-24 10:30:00,
2013-11-24 04:36:00,63.1,58.5,25.90,SSE,151,0.0,0.0,85,0.00,,,0.00,0,Wunderground v.1.15,2013-11-24 10:36:00,
2013-11-24 04:41:00,63.1,58.5,25.90,SSE,152,0.0,1.0,85,0.00,,,0.00,0,Wunderground v.1.15,2013-11-24 10:41:00,
2013-11-24 04:46:00,63.3,58.4,25.90,SSE,152,1.0,1.0,84,0.00,,,0.00,0,Wunderground v.1.15,2013-11-24 10:46:00,
2013-11-24 04:55:00,63.3,58.4,25.91,SSE,152,0.0,1.0,84,0.00,,,0.00,0,Wunderground v.1.15,2013-11-24 10:55:00,
2013-11-24 05:00:00,63.1,58.2,25.91,SE,130,0.0,0.0,84,0.00,,,0.00,0,Wunderground v.1.15,2013-11-24 11:00:00,
2013-11-24 05:11:00,63.1,58.5,25.91,SE,130,0.0,0.0,85,0.00,,,0.00,0,Wunderground v.1.15,2013-11-24 11:11:00,
2013-11-24 05:16:00,63.1,58.5,25.92,SE,130,0.0,1.0,85,0.00,,,0.00,0,Wunderground v.1.15,2013-11-24 11:16:00,
2013-11-24 05:25:00,62.8,57.9,25.92,SE,146,0.0,4.0,84,0.00,,,0.00,0,Wunderground v.1.15,2013-11-24 11:25:00,
2013-11-24 05:31:00,62.5,57.6,25.92,WSW,237,1.0,1.0,84,0.00,,,0.00,0,Wunderground v.1.15,2013-11-24 11:31:00,
2013-11-24 05:41:00,62.5,57.6,25.92,SSE,149,1.0,2.0,84,0.00,,,0.00,0,Wunderground v.1.15,2013-11-24 11:41:00,
2013-11-24 05:46:00,62.6,57.7,25.92,SE,131,2.0,2.0,84,0.00,,,0.00,7,Wunderground v.1.15,2013-11-24 11:46:00,
2013-11-24 05:55:00,62.8,57.6,25.93,SSE,158,1.0,1.0,83,0.00,,,0.00,12,Wunderground v.1.15,2013-11-24 11:55:00,
2013-11-24 06:01:00,62.8,57.9,25.93,SSE,155,1.0,1.0,84,0.00,,,0.00,18,Wunderground v.1.15,2013-11-24 12:01:00,
2013-11-24 06:11:00,63.1,57.9,25.93,ENE,76,1.0,2.0,83,0.00,,,0.00,25,Wunderground v.1.15,2013-11-24 12:11:00,
2013-11-24 06:16:00,63.8,57.9,25.93,SE,134,2.0,2.0,81,0.00,,,0.00,28,Wunderground v.1.15,2013-11-24 12:16:00,
2013-11-24 06:25:00,65.1,58.1,25.94,SE,132,2.0,4.0,78,0.00,,,0.00,60,Wunderground v.1.15,2013-11-24 12:25:00,
2013-11-24 06:31:00,65.5,58.5,25.94,SSE,159,3.0,5.0,78,0.00,,,0.00,65,Wunderground v.1.15,2013-11-24 12:31:00,
2013-11-24 06:41:00,66.3,58.5,25.94,SSE,151,5.0,10.0,76,0.00,,,0.00,67,Wunderground v.1.15,2013-11-24 12:41:00,
2013-11-24 06:46:00,66.7,58.5,25.94,SSE,150,4.0,4.0,75,0.00,,,0.00,193,Wunderground v.1.15,2013-11-24 12:46:00,
2013-11-24 06:51:00,67.0,58.8,25.94,SE,140,2.0,4.0,75,0.00,,,0.00,204,Wunderground v.1.15,2013-11-24 12:51:00,
2013-11-24 07:01:00,67.3,58.7,25.95,NNE,15,0.0,0.0,74,0.00,,,0.00,232,Wunderground v.1.15,2013-11-24 13:01:00,
2013-11-24 07:06:00,67.8,58.4,25.95,NW,317,0.0,0.0,72,0.00,,,0.00,258,Wunderground v.1.15,2013-11-24 13:06:00,
2013-11-24 07:11:00,68.3,58.5,25.95,ENE,65,1.0,1.0,71,0.00,,,0.00,278,Wunderground v.1.15,2013-11-24 13:11:00,
2013-11-24 07:21:00,68.8,58.6,25.95,East,89,1.0,1.0,70,0.00,,,0.00,316,Wunderground v.1.15,2013-11-24 13:21:00,
2013-11-24 07:26:00,69.0,59.2,25.95,East,101,1.0,1.0,71,0.00,,,0.00,334,Wunderground v.1.15,2013-11-24 13:26:00,
2013-11-24 07:35:00,70.2,58.7,25.96,SSE,168,1.0,2.0,67,0.00,,,0.00,367,Wunderground v.1.15,2013-11-24 13:35:00,
2013-11-24 07:40:00,70.2,58.7,25.96,NE,39,1.0,1.0,67,0.00,,,0.00,392,Wunderground v.1.15,2013-11-24 13:40:00,
2013-11-24 07:46:00,70.2,58.7,25.96,ENE,62,1.0,1.0,67,0.00,,,0.00,422,Wunderground v.1.15,2013-11-24 13:46:00,
2013-11-24 07:56:00,70.8,58.0,25.96,SSE,150,1.0,1.0,64,0.00,,,0.00,388,Wunderground v.1.15,2013-11-24 13:56:00,
2013-11-24 08:06:00,71.7,59.3,25.96,NNW,344,1.0,2.0,65,0.00,,,0.00,543,Wunderground v.1.15,2013-11-24 14:06:00,
2013-11-24 08:11:00,71.7,59.7,25.96,NNW,329,1.0,1.0,66,0.00,,,0.00,271,Wunderground v.1.15,2013-11-24 14:11:00,
2013-11-24 08:21:00,72.0,59.6,25.96,SSE,150,1.0,2.0,65,0.00,,,0.00,540,Wunderground v.1.15,2013-11-24 14:21:00,
2013-11-24 08:26:00,72.6,59.7,25.96,SSW,204,2.0,2.0,64,0.00,,,0.00,531,Wunderground v.1.15,2013-11-24 14:26:00,
2013-11-24 08:36:00,73.6,59.3,25.96,SSE,168,1.0,4.0,61,0.00,,,0.00,566,Wunderground v.1.15,2013-11-24 14:36:00,
2013-11-24 08:41:00,73.8,59.5,25.95,ESE,105,2.0,2.0,61,0.00,,,0.00,573,Wunderground v.1.15,2013-11-24 14:41:00,
2013-11-24 08:51:00,73.9,59.6,25.95,SSE,151,2.0,2.0,61,0.00,,,0.00,638,Wunderground v.1.15,2013-11-24 14:51:00,
2013-11-24 08:56:00,74.5,59.7,25.95,SE,146,2.0,8.0,60,0.00,,,0.00,698,Wunderground v.1.15,2013-11-24 14:56:00,
2013-11-24 09:11:00,73.8,59.0,25.95,West,275,2.0,2.0,60,0.00,,,0.00,206,Wunderground v.1.15,2013-11-24 15:11:00,
2013-11-24 09:16:00,73.2,59.8,25.95,ESE,105,2.0,2.0,63,0.00,,,0.00,179,Wunderground v.1.15,2013-11-24 15:16:00,
2013-11-24 09:21:00,72.6,60.6,25.95,NNW,328,2.0,2.0,66,0.00,,,0.00,283,Wunderground v.1.15,2013-11-24 15:21:00,
2013-11-24 09:26:00,72.6,60.6,25.95,NNE,25,2.0,2.0,66,0.00,,,0.00,422,Wunderground v.1.15,2013-11-24 15:26:00,
2013-11-24 09:35:00,73.2,59.8,25.95,NW,323,3.0,3.0,63,0.00,,,0.00,327,Wunderground v.1.15,2013-11-24 15:35:00,
2013-11-24 09:41:00,73.6,60.2,25.94,NNE,22,3.0,3.0,63,0.00,,,0.00,886,Wunderground v.1.15,2013-11-24 15:41:00,
2013-11-24 09:46:00,73.8,60.9,25.95,North,360,3.0,3.0,64,0.00,,,0.00,559,Wunderground v.1.15,2013-11-24 15:46:00,
2013-11-24 09:51:00,73.9,60.5,25.95,NW,306,4.0,4.0,63,0.00,,,0.00,758,Wunderground v.1.15,2013-11-24 15:51:00,
2013-11-24 09:56:00,74.5,60.6,25.95,NNE,24,4.0,4.0,62,0.00,,,0.00,777,Wunderground v.1.15,2013-11-24 15:56:00,
2013-11-24 10:06:00,75.5,61.1,25.95,NW,323,3.0,5.0,61,0.00,,,0.00,325,Wunderground v.1.15,2013-11-24 16:06:00,
2013-11-24 10:11:00,75.0,60.6,25.94,NE,51,4.0,6.0,61,0.00,,,0.00,290,Wunderground v.1.15,2013-11-24 16:11:00,
2013-11-24 10:16:00,74.5,61.1,25.94,NNW,345,4.0,8.0,63,0.00,,,0.00,868,Wunderground v.1.15,2013-11-24 16:16:00,
2013-11-24 10:21:00,74.5,61.1,25.94,NW,323,5.0,11.0,63,0.00,,,0.00,921,Wunderground v.1.15,2013-11-24 16:21:00,
2013-11-24 10:31:00,74.1,61.6,25.94,NW,313,4.0,11.0,65,0.00,,,0.00,1014,Wunderground v.1.15,2013-11-24 16:31:00,
2013-11-24 10:36:00,73.2,61.2,25.94,ENE,76,5.0,5.0,66,0.00,,,0.00,466,Wunderground v.1.15,2013-11-24 16:36:00,
2013-11-24 10:41:00,73.4,61.3,25.93,East,83,5.0,5.0,66,0.00,,,0.00,995,Wunderground v.1.15,2013-11-24 16:41:00,
2013-11-24 10:51:00,74.1,62.0,25.93,NE,45,4.0,4.0,66,0.00,,,0.00,970,Wunderground v.1.15,2013-11-24 16:51:00,
2013-11-24 11:01:00,73.8,61.3,25.93,NNE,13,4.0,4.0,65,0.00,,,0.00,364,Wunderground v.1.15,2013-11-24 17:01:00,
2013-11-24 11:06:00,73.6,61.5,25.93,NE,49,5.0,5.0,66,0.00,,,0.00,274,Wunderground v.1.15,2013-11-24 17:06:00,
2013-11-24 11:11:00,72.9,61.3,25.93,NNE,16,4.0,4.0,67,0.00,,,0.00,142,Wunderground v.1.15,2013-11-24 17:11:00,
2013-11-24 11:16:00,71.7,60.6,25.93,NNE,21,4.0,4.0,68,0.00,,,0.00,114,Wunderground v.1.15,2013-11-24 17:16:00,
2013-11-24 11:25:00,70.2,60.7,25.93,NW,308,4.0,9.0,72,0.00,,,0.00,111,Wunderground v.1.15,2013-11-24 17:25:00,
2013-11-24 11:31:00,69.7,61.8,25.93,NE,39,4.0,13.0,76,0.00,,,0.00,116,Wunderground v.1.15,2013-11-24 17:31:00,
2013-11-24 11:41:00,68.8,61.7,25.92,NE,41,4.0,4.0,78,0.00,,,0.00,206,Wunderground v.1.15,2013-11-24 17:41:00,
2013-11-24 11:51:00,69.5,63.1,25.92,ESE,106,3.0,5.0,80,0.00,,,0.00,297,Wunderground v.1.15,2013-11-24 17:51:00,
2013-11-24 11:56:00,70.0,62.1,25.92,SE,126,3.0,5.0,76,0.00,,,0.00,350,Wunderground v.1.15,2013-11-24 17:56:00,
2013-11-24 12:06:00,71.9,61.6,25.91,NW,323,4.0,4.0,70,0.00,,,0.00,585,Wunderground v.1.15,2013-11-24 18:06:00,
2013-11-24 12:15:00,73.4,62.2,25.91,NNW,343,5.0,5.0,68,0.00,,,0.00,993,Wunderground v.1.15,2013-11-24 18:15:00,
2013-11-24 12:20:00,74.1,62.0,25.91,ESE,107,5.0,5.0,66,0.00,,,0.00,540,Wunderground v.1.15,2013-11-24 18:20:00,
2013-11-24 12:25:00,73.8,62.2,25.90,NNE,32,5.0,5.0,67,0.00,,,0.00,540,Wunderground v.1.15,2013-11-24 18:25:00,
2013-11-24 12:31:00,73.2,61.6,25.90,NE,42,6.0,6.0,67,0.00,,,0.00,886,Wunderground v.1.15,2013-11-24 18:31:00,
2013-11-24 12:36:00,73.6,62.0,25.90,NNE,22,5.0,9.0,67,0.00,,,0.00,865,Wunderground v.1.15,2013-11-24 18:36:00,
2013-11-24 12:46:00,74.3,61.3,25.89,East,98,5.0,5.0,64,0.00,,,0.00,355,Wunderground v.1.15,2013-11-24 18:46:00,
2013-11-24 12:56:00,73.6,61.5,25.89,ESE,110,4.0,4.0,66,0.00,,,0.00,260,Wunderground v.1.15,2013-11-24 18:56:00,
2013-11-24 13:01:00,73.2,61.6,25.89,NE,36,4.0,7.0,67,0.00,,,0.00,605,Wunderground v.1.15,2013-11-24 19:01:00,
2013-11-24 13:06:00,73.1,61.5,25.88,West,263,5.0,7.0,67,0.00,,,0.00,279,Wunderground v.1.15,2013-11-24 19:06:00,
2013-11-24 13:15:00,72.6,61.0,25.88,North,350,5.0,5.0,67,0.00,,,0.00,322,Wunderground v.1.15,2013-11-24 19:15:00,
2013-11-24 13:20:00,72.7,61.5,25.88,NNE,15,6.0,6.0,68,0.00,,,0.00,323,Wunderground v.1.15,2013-11-24 19:20:00,
2013-11-24 13:26:00,72.9,61.7,25.88,North,360,5.0,6.0,68,0.00,,,0.00,334,Wunderground v.1.15,2013-11-24 19:26:00,
2013-11-24 13:31:00,73.6,63.2,25.88,WNW,293,6.0,6.0,70,0.00,,,0.00,311,Wunderground v.1.15,2013-11-24 19:31:00,
2013-11-24 13:41:00,73.4,62.2,25.88,NNE,30,5.0,7.0,68,0.00,,,0.00,842,Wunderground v.1.15,2013-11-24 19:41:00,
2013-11-24 13:50:00,73.4,61.8,25.88,NE,41,6.0,6.0,67,0.00,,,0.00,513,Wunderground v.1.15,2013-11-24 19:50:00,
2013-11-24 13:55:00,73.4,62.2,25.88,SE,136,5.0,5.0,68,0.00,,,0.00,171,Wunderground v.1.15,2013-11-24 19:55:00,
2013-11-24 14:01:00,72.9,62.5,25.88,ENE,62,4.0,4.0,70,0.00,,,0.00,132,Wunderground v.1.15,2013-11-24 20:01:00,
2013-11-24 14:06:00,72.0,63.3,25.88,ESE,119,5.0,8.0,74,0.00,,,0.00,123,Wunderground v.1.15,2013-11-24 20:06:00,
2013-11-24 14:11:00,71.4,62.7,25.88,NW,319,5.0,5.0,74,0.00,,,0.00,169,Wunderground v.1.15,2013-11-24 20:11:00,
2013-11-24 14:21:00,70.5,62.6,25.88,NNW,333,5.0,6.0,76,0.00,,,0.00,134,Wunderground v.1.15,2013-11-24 20:21:00,
2013-11-24 14:26:00,70.0,62.5,25.89,NW,310,5.0,5.0,77,0.00,,,0.00,179,Wunderground v.1.15,2013-11-24 20:26:00,
2013-11-24 14:36:00,69.3,62.9,25.89,NNW,330,4.0,6.0,80,0.00,,,0.01,174,Wunderground v.1.15,2013-11-24 20:36:00,
2013-11-24 14:46:00,69.2,63.1,25.89,East,94,5.0,6.0,81,0.00,,,0.01,188,Wunderground v.1.15,2013-11-24 20:46:00,
2013-11-24 14:51:00,69.7,63.3,25.89,SE,130,4.0,6.0,80,0.00,,,0.01,174,Wunderground v.1.15,2013-11-24 20:51:00,
2013-11-24 14:56:00,69.7,62.9,25.89,SE,142,3.0,4.0,79,0.00,,,0.01,221,Wunderground v.1.15,2013-11-24 20:56:00,
2013-11-24 15:05:00,69.8,62.3,25.89,ENE,69,3.0,5.0,77,0.00,,,0.01,281,Wunderground v.1.15,2013-11-24 21:05:00,
2013-11-24 15:11:00,70.3,62.4,25.89,SE,138,3.0,3.0,76,0.00,,,0.01,255,Wunderground v.1.15,2013-11-24 21:11:00,
2013-11-24 15:16:00,70.8,62.5,25.89,North,9,2.0,3.0,75,0.00,,,0.01,220,Wunderground v.1.15,2013-11-24 21:16:00,
2013-11-24 15:26:00,71.2,62.5,25.89,North,9,2.0,3.0,74,0.00,,,0.01,188,Wunderground v.1.15,2013-11-24 21:26:00,
2013-11-24 15:36:00,71.4,61.9,25.89,NE,42,1.0,5.0,72,0.00,,,0.01,221,Wunderground v.1.15,2013-11-24 21:36:00,
2013-11-24 15:45:00,71.4,61.9,25.88,NE,35,3.0,3.0,72,0.00,,,0.01,185,Wunderground v.1.15,2013-11-24 21:45:00,
2013-11-24 15:51:00,71.2,61.7,25.89,North,5,2.0,2.0,72,0.00,,,0.01,200,Wunderground v.1.15,2013-11-24 21:51:00,
2013-11-24 16:01:00,71.4,61.9,25.89,ENE,62,2.0,6.0,72,0.00,,,0.01,125,Wunderground v.1.15,2013-11-24 22:01:00,
2013-11-24 16:06:00,71.0,61.5,25.89,NNW,331,2.0,6.0,72,0.00,,,0.01,65,Wunderground v.1.15,2013-11-24 22:06:00,
2013-11-24 16:11:00,70.5,61.0,25.90,North,355,3.0,3.0,72,0.00,,,0.01,46,Wunderground v.1.15,2013-11-24 22:11:00,
2013-11-24 16:21:00,69.7,60.7,25.90,ESE,115,3.0,4.0,73,0.00,,,0.01,33,Wunderground v.1.15,2013-11-24 22:21:00,
2013-11-24 16:26:00,69.5,60.5,25.90,ENE,78,3.0,4.0,73,0.00,,,0.01,25,Wunderground v.1.15,2013-11-24 22:26:00,
2013-11-24 16:31:00,69.3,60.7,25.90,ESE,116,3.0,5.0,74,0.00,,,0.01,23,Wunderground v.1.15,2013-11-24 22:31:00,
2013-11-24 16:40:00,69.0,60.4,25.90,ESE,111,3.0,7.0,74,0.00,,,0.01,16,Wunderground v.1.15,2013-11-24 22:40:00,
2013-11-24 16:46:00,68.8,60.6,25.90,South,171,2.0,2.0,75,0.00,,,0.01,9,Wunderground v.1.15,2013-11-24 22:46:00,
2013-11-24 16:51:00,68.8,60.9,25.91,NNE,32,3.0,3.0,76,0.00,,,0.01,5,Wunderground v.1.15,2013-11-24 22:51:00,
2013-11-24 16:56:00,68.7,60.8,25.91,NNW,347,2.0,2.0,76,0.00,,,0.01,0,Wunderground v.1.15,2013-11-24 22:56:00,
2013-11-24 17:01:00,68.8,61.3,25.92,East,100,1.0,1.0,77,0.00,,,0.01,0,Wunderground v.1.15,2013-11-24 23:01:00,
2013-11-24 17:10:00,68.7,61.6,25.91,East,94,1.0,2.0,78,0.00,,,0.01,0,Wunderground v.1.15,2013-11-24 23:10:00,
2013-11-24 17:16:00,68.5,61.4,25.92,East,94,1.0,1.0,78,0.00,,,0.01,0,Wunderground v.1.15,2013-11-24 23:16:00,
2013-11-24 17:21:00,68.3,61.5,25.92,NNE,13,0.0,2.0,79,0.00,,,0.01,0,Wunderground v.1.15,2013-11-24 23:21:00,
2013-11-24 17:26:00,68.3,61.2,25.92,NNE,21,1.0,3.0,78,0.00,,,0.01,0,Wunderground v.1.15,2013-11-24 23:26:00,
2013-11-24 17:35:00,68.3,60.8,25.92,NW,313,1.0,1.0,77,0.00,,,0.01,0,Wunderground v.1.15,2013-11-24 23:35:00,
2013-11-24 17:40:00,68.3,60.8,25.92,NNW,348,1.0,6.0,77,0.00,,,0.01,0,Wunderground v.1.15,2013-11-24 23:40:00,
2013-11-24 17:46:00,68.3,61.5,25.92,NE,34,1.0,5.0,79,0.00,,,0.01,0,Wunderground v.1.15,2013-11-24 23:46:00,
2013-11-24 17:56:00,67.8,61.4,25.92,NE,54,2.0,2.0,80,0.00,,,0.01,0,Wunderground v.1.15,2013-11-24 23:56:00,
2013-11-24 18:01:00,67.7,61.7,25.92,NE,41,2.0,3.0,81,0.00,,,0.01,0,Wunderground v.1.15,2013-11-25 00:01:00,
2013-11-24 18:11:00,67.5,61.1,25.93,West,269,2.0,3.0,80,0.00,,,0.01,0,Wunderground v.1.15,2013-11-25 00:11:00,
2013-11-24 18:16:00,67.5,61.1,25.93,NNE,24,1.0,2.0,80,0.00,,,0.01,0,Wunderground v.1.15,2013-11-25 00:16:00,
2013-11-24 18:21:00,67.5,61.5,25.93,NNW,343,1.0,2.0,81,0.00,,,0.01,0,Wunderground v.1.15,2013-11-25 00:21:00,
2013-11-24 18:31:00,67.5,61.5,25.94,NE,38,1.0,1.0,81,0.00,,,0.01,0,Wunderground v.1.15,2013-11-25 00:31:00,
2013-11-24 18:36:00,67.3,61.6,25.94,NNW,329,1.0,1.0,82,0.00,,,0.01,0,Wunderground v.1.15,2013-11-25 00:36:00,
2013-11-24 18:41:00,67.2,61.5,25.94,WSW,245,1.0,1.0,82,0.00,,,0.01,0,Wunderground v.1.15,2013-11-25 00:41:00,
2013-11-24 18:50:00,67.2,61.2,25.94,NNW,341,2.0,2.0,81,0.00,,,0.01,0,Wunderground v.1.15,2013-11-25 00:50:00,
2013-11-24 18:56:00,67.3,61.3,25.94,NNE,14,2.0,2.0,81,0.00,,,0.01,0,Wunderground v.1.15,2013-11-25 00:56:00,
2013-11-24 19:01:00,67.5,60.8,25.95,ESE,108,2.0,2.0,79,0.00,,,0.01,0,Wunderground v.1.15,2013-11-25 01:01:00,
2013-11-24 19:06:00,67.7,61.0,25.95,SE,124,2.0,4.0,79,0.00,,,0.01,0,Wunderground v.1.15,2013-11-25 01:06:00,
2013-11-24 19:16:00,67.8,60.7,25.96,East,90,2.0,2.0,78,0.00,,,0.01,0,Wunderground v.1.15,2013-11-25 01:16:00,
2013-11-24 19:21:00,67.7,61.0,25.96,East,95,2.0,5.0,79,0.00,,,0.01,0,Wunderground v.1.15,2013-11-25 01:21:00,
2013-11-24 19:26:00,67.7,61.3,25.95,SSE,153,2.0,5.0,80,0.00,,,0.01,0,Wunderground v.1.15,2013-11-25 01:26:00,
2013-11-24 19:36:00,67.3,61.3,25.95,East,101,0.0,0.0,81,0.00,,,0.01,0,Wunderground v.1.15,2013-11-25 01:36:00,
2013-11-24 19:46:00,67.0,61.0,25.95,SSW,210,0.0,0.0,81,0.00,,,0.01,0,Wunderground v.1.15,2013-11-25 01:46:00,
2013-11-24 19:56:00,67.0,61.0,25.95,SSW,210,0.0,0.0,81,0.00,,,0.01,0,Wunderground v.1.15,2013-11-25 01:56:00,
2013-11-24 20:06:00,66.8,61.1,25.95,SSW,210,0.0,0.0,82,0.00,,,0.01,0,Wunderground v.1.15,2013-11-25 02:06:00,
2013-11-24 20:16:00,66.7,61.0,25.96,SW,231,0.0,0.0,82,0.00,,,0.01,0,Wunderground v.1.15,2013-11-25 02:16:00,
2013-11-24 20:26:00,67.0,61.0,25.97,NNW,339,0.0,3.0,81,0.00,,,0.01,0,Wunderground v.1.15,2013-11-25 02:26:00,
2013-11-24 20:36:00,67.0,60.6,25.97,NNE,13,1.0,1.0,80,0.00,,,0.01,0,Wunderground v.1.15,2013-11-25 02:36:00,
2013-11-24 20:46:00,67.2,60.1,25.98,NW,309,1.0,1.0,78,0.00,,,0.01,0,Wunderground v.1.15,2013-11-25 02:46:00,
2013-11-24 20:51:00,67.3,59.8,25.98,North,360,1.0,1.0,77,0.00,,,0.01,0,Wunderground v.1.15,2013-11-25 02:51:00,
2013-11-24 20:56:00,67.5,60.0,25.97,SE,136,0.0,1.0,77,0.00,,,0.01,0,Wunderground v.1.15,2013-11-25 02:56:00,
2013-11-24 21:06:00,67.5,60.0,25.97,SE,136,0.0,0.0,77,0.00,,,0.01,0,Wunderground v.1.15,2013-11-25 03:06:00,
2013-11-24 21:11:00,67.5,60.0,25.97,WNW,290,0.0,0.0,77,0.00,,,0.01,0,Wunderground v.1.15,2013-11-25 03:11:00,
2013-11-24 21:16:00,67.3,59.8,25.98,SW,221,0.0,0.0,77,0.00,,,0.01,0,Wunderground v.1.15,2013-11-25 03:16:00,
2013-11-24 21:25:00,67.3,60.2,25.98,SW,221,0.0,0.0,78,0.00,,,0.01,0,Wunderground v.1.15,2013-11-25 03:25:00,
2013-11-24 21:31:00,67.3,60.2,25.98,SW,221,0.0,0.0,78,0.00,,,0.01,0,Wunderground v.1.15,2013-11-25 03:31:00,
2013-11-24 21:36:00,67.3,60.2,25.98,SW,221,0.0,0.0,78,0.00,,,0.01,0,Wunderground v.1.15,2013-11-25 03:36:00,
2013-11-24 21:41:00,67.3,60.2,25.98,SW,221,0.0,0.0,78,0.00,,,0.01,0,Wunderground v.1.15,2013-11-25 03:41:00,
2013-11-24 21:51:00,67.2,60.5,25.98,SW,221,0.0,0.0,79,0.00,,,0.01,0,Wunderground v.1.15,2013-11-25 03:51:00,
2013-11-24 22:01:00,66.8,60.4,25.97,SW,221,0.0,0.0,80,0.00,,,0.01,0,Wunderground v.1.15,2013-11-25 04:01:00,
2013-11-24 22:06:00,66.8,60.4,25.97,SW,221,0.0,0.0,80,0.00,,,0.01,0,Wunderground v.1.15,2013-11-25 04:06:00,
2013-11-24 22:11:00,66.8,60.4,25.97,SW,221,0.0,0.0,80,0.00,,,0.01,0,Wunderground v.1.15,2013-11-25 04:11:00,
2013-11-24 22:21:00,66.8,60.8,25.97,SW,221,0.0,0.0,81,0.00,,,0.01,0,Wunderground v.1.15,2013-11-25 04:21:00,
2013-11-24 22:26:00,66.8,60.8,25.97,SW,221,0.0,0.0,81,0.00,,,0.01,0,Wunderground v.1.15,2013-11-25 04:26:00,
2013-11-24 22:36:00,66.7,60.7,25.97,SW,221,0.0,0.0,81,0.00,,,0.01,0,Wunderground v.1.15,2013-11-25 04:36:00,
2013-11-24 22:41:00,66.5,60.8,25.97,SW,221,0.0,0.0,82,0.00,,,0.01,0,Wunderground v.1.15,2013-11-25 04:41:00,
2013-11-24 22:46:00,66.5,60.8,25.97,SW,221,0.0,0.0,82,0.00,,,0.01,0,Wunderground v.1.15,2013-11-25 04:46:00,
2013-11-24 22:51:00,66.3,60.3,25.97,SSE,151,0.0,1.0,81,0.00,,,0.01,0,Wunderground v.1.15,2013-11-25 04:51:00,
2013-11-24 23:01:00,66.5,60.5,25.96,SSE,151,0.0,2.0,81,0.00,,,0.01,0,Wunderground v.1.15,2013-11-25 05:01:00,
2013-11-24 23:11:00,66.2,60.2,25.96,SSE,151,0.0,0.0,81,0.00,,,0.01,0,Wunderground v.1.15,2013-11-25 05:11:00,
2013-11-24 23:16:00,66.0,60.3,25.96,SSE,151,0.0,0.0,82,0.00,,,0.01,0,Wunderground v.1.15,2013-11-25 05:16:00,
2013-11-24 23:21:00,65.9,60.2,25.96,SSE,151,0.0,0.0,82,0.00,,,0.01,0,Wunderground v.1.15,2013-11-25 05:21:00,
2013-11-24 23:26:00,65.7,60.4,25.96,SSE,151,0.0,0.0,83,0.00,,,0.01,0,Wunderground v.1.15,2013-11-25 05:26:00,
2013-11-24 23:36:00,65.4,60.4,25.96,SSE,152,0.0,0.0,84,0.00,,,0.01,0,Wunderground v.1.15,2013-11-25 05:36:00,
2013-11-24 23:46:00,65.1,60.1,25.96,SSE,151,0.0,0.0,84,0.00,,,0.01,0,Wunderground v.1.15,2013-11-25 05:46:00,
2013-11-24 23:51:00,65.1,60.5,25.96,SSE,152,0.0,0.0,85,0.00,,,0.01,0,Wunderground v.1.15,2013-11-25 05:51:00,
2013-11-24 23:56:00,64.9,60.3,25.96,SSE,152,0.0,0.0,85,0.00,,,0.01,0,Wunderground v.1.15,2013-11-25 05:56:00,